Time;durP1;ratioP1;P1;durP2;ratioP2;P2;SDS_P1;SDS_P2;PMS_P1;PMS_P2;Temp;Humidity;BMP_temperature;BMP_pressure;BME280_temperature;BME280_humidity;BME280_pressure;Samples;Min_cycle;Max_cycle;Signal;HPM_P1;HPM_P2
2023/12/22 00:04:01;;;;;;;4.57;1.17;;;;;;;17.53;52.01;99380.59;20864768;28;20049;-70
2023/12/22 00:14:03;;;;;;;4.65;1.65;;;;;;;17.56;51.91;99391.03;20833740;28;20048;-69
2023/12/22 00:24:05;;;;;;;4.82;1.83;;;;;;;17.60;51.72;99396.88;20828543;28;20053;-69
2023/12/22 00:34:07;;;;;;;4.85;1.67;;;;;;;17.61;51.53;99388.66;20804594;28;20045;-69
2023/12/22 00:44:08;;;;;;;4.63;1.30;;;;;;;17.66;51.46;99402.44;20812702;28;20528;-70
2023/12/22 00:54:11;;;;;;;5.40;1.58;;;;;;;17.68;51.18;99404.97;20838730;28;20501;-70
2023/12/22 01:04:13;;;;;;;4.57;1.67;;;;;;;17.69;51.11;99433.56;20822599;28;20049;-70
2023/12/22 01:14:15;;;;;;;4.10;1.67;;;;;;;17.71;51.04;99446.84;20808205;28;20493;-69
2023/12/22 01:24:17;;;;;;;3.33;1.20;;;;;;;17.73;51.03;99459.13;20802410;28;20497;-69
2023/12/22 01:34:19;;;;;;;4.72;1.55;;;;;;;17.76;50.83;99476.75;20833389;28;20053;-69
2023/12/22 01:44:20;;;;;;;4.63;1.27;;;;;;;17.77;50.47;99463.16;20812283;28;20048;-69
2023/12/22 01:54:22;;;;;;;4.43;1.48;;;;;;;17.79;50.19;99463.81;20827431;28;20134;-69
2023/12/22 02:04:24;;;;;;;3.20;1.10;;;;;;;17.76;50.15;99457.91;20827810;28;22369;-70
2023/12/22 02:14:26;;;;;;;4.00;1.23;;;;;;;17.74;50.01;99450.03;20826074;28;20049;-70
2023/12/22 02:24:30;;;;;;;5.05;1.40;;;;;;;17.65;49.89;99435.75;20853193;28;20122;-70
2023/12/22 02:34:35;;;;;;;6.80;2.07;;;;;;;17.43;50.18;99466.00;20841381;28;20138;-70
2023/12/22 02:44:38;;;;;;;5.55;1.73;;;;;;;17.18;50.53;99461.47;20850713;28;20056;-70
2023/12/22 02:54:39;;;;;;;5.20;1.73;;;;;;;17.27;50.67;99462.31;20850712;28;20044;-70
2023/12/22 03:04:41;;;;;;;4.45;1.35;;;;;;;17.29;50.65;99443.34;20831619;28;20056;-70
2023/12/22 03:14:43;;;;;;;4.45;1.98;;;;;;;17.26;50.35;99439.13;20842477;28;20045;-69
2023/12/22 03:24:45;;;;;;;4.07;1.60;;;;;;;17.27;50.17;99454.25;20849657;28;20573;-70
2023/12/22 03:34:47;;;;;;;3.83;1.02;;;;;;;17.25;50.40;99432.06;20854656;28;20099;-70
2023/12/22 03:44:49;;;;;;;3.55;1.17;;;;;;;17.21;50.24;99447.69;20848258;28;20440;-70
2023/12/22 03:54:50;;;;;;;4.82;1.23;;;;;;;17.23;50.18;99475.28;20865080;28;20057;-70
2023/12/22 04:04:52;;;;;;;4.85;1.42;;;;;;;17.22;50.28;99443.16;20857125;28;20519;-69
2023/12/22 04:14:54;;;;;;;4.25;1.00;;;;;;;17.30;50.18;99469.22;20831973;28;20086;-69
2023/12/22 04:24:56;;;;;;;2.65;1.00;;;;;;;17.33;50.25;99476.97;20840100;28;20056;-69
2023/12/22 04:34:57;;;;;;;3.80;1.27;;;;;;;17.37;49.93;99483.69;20856925;28;20049;-69
2023/12/22 04:44:59;;;;;;;4.40;1.10;;;;;;;17.41;49.82;99493.09;20834757;28;20076;-69
2023/12/22 04:55:01;;;;;;;3.50;1.10;;;;;;;17.41;49.56;99479.66;20854313;28;20135;-69
2023/12/22 05:05:03;;;;;;;2.35;0.80;;;;;;;17.41;49.30;99506.56;20840356;28;20049;-70
2023/12/22 05:15:05;;;;;;;4.80;1.60;;;;;;;17.43;49.32;99514.44;20833906;28;20698;-70
2023/12/22 05:25:09;;;;;;;5.57;1.50;;;;;;;17.40;49.22;99540.66;20852582;28;20049;-70
2023/12/22 05:35:11;;;;;;;3.60;1.27;;;;;;;17.40;49.16;99539.84;20827972;28;20045;-70
2023/12/22 05:45:15;;;;;;;4.60;1.13;;;;;;;17.39;48.99;99565.91;20832739;28;20052;-70
2023/12/22 05:55:16;;;;;;;5.15;1.30;;;;;;;17.39;49.05;99579.34;20845340;28;20044;-70
2023/12/22 06:05:18;;;;;;;4.63;1.30;;;;;;;17.36;49.03;99578.84;20825414;28;20127;-70
2023/12/22 06:15:20;;;;;;;3.88;1.20;;;;;;;17.35;48.95;99571.78;20826701;28;20139;-70
2023/12/22 06:25:22;;;;;;;4.53;1.20;;;;;;;17.34;48.87;99584.38;20794992;28;20045;-70
2023/12/22 06:35:25;;;;;;;4.78;1.27;;;;;;;17.35;48.68;99583.38;20842682;28;20426;-70
2023/12/22 06:45:27;;;;;;;3.67;1.25;;;;;;;17.33;48.71;99568.41;20805712;28;20048;-70
2023/12/22 06:55:28;;;;;;;2.75;1.48;;;;;;;17.33;48.71;99558.50;20865657;28;20048;-70
2023/12/22 07:05:32;;;;;;;3.53;1.10;;;;;;;17.32;48.50;99588.25;20846842;28;20060;-69
2023/12/22 07:15:33;;;;;;;3.67;1.02;;;;;;;17.33;48.54;99595.31;20848010;28;20045;-69
2023/12/22 07:25:38;;;;;;;4.20;1.00;;;;;;;17.32;48.60;99620.53;20828638;28;20077;-70
2023/12/22 07:35:40;;;;;;;4.00;1.17;;;;;;;17.35;49.35;99593.31;20835306;28;20049;-70
2023/12/22 07:45:42;;;;;;;3.47;0.85;;;;;;;17.35;49.62;99628.28;20830747;28;20496;-70
2023/12/22 07:55:44;;;;;;;3.08;0.98;;;;;;;17.38;49.93;99626.09;20844188;28;20372;-71
2023/12/22 08:05:46;;;;;;;5.18;1.25;;;;;;;17.28;50.29;99622.69;20843761;28;20044;-71
2023/12/22 08:15:48;;;;;;;3.97;1.20;;;;;;;17.40;50.62;99621.38;20809661;28;20052;-67
2023/12/22 08:25:50;;;;;;;4.15;1.42;;;;;;;17.58;50.53;99615.03;20835937;28;20489;-67
2023/12/22 08:35:53;;;;;;;3.55;1.08;;;;;;;17.74;50.21;99614.22;20804073;28;20498;-67
2023/12/22 08:45:55;;;;;;;3.33;1.45;;;;;;;17.85;50.29;99625.66;20827715;28;20109;-67
2023/12/22 08:55:57;;;;;;;3.42;0.98;;;;;;;17.95;50.49;99615.56;20801435;28;20076;-67
2023/12/22 09:05:58;;;;;;;4.60;1.00;;;;;;;18.08;50.35;99583.63;20814313;28;20046;-67
2023/12/22 09:16:00;;;;;;;2.47;0.98;;;;;;;18.30;50.24;99607.31;20795350;28;20056;-67
2023/12/22 09:26:04;;;;;;;2.45;0.93;;;;;;;18.53;49.74;99604.75;20812918;28;20048;-67
2023/12/22 09:36:06;;;;;;;2.40;0.80;;;;;;;18.60;49.72;99611.16;20831633;28;20409;-67
2023/12/22 09:46:09;;;;;;;3.55;1.02;;;;;;;18.64;49.51;99622.44;20838721;28;20060;-64
2023/12/22 09:56:10;;;;;;;2.35;0.85;;;;;;;18.59;49.86;99603.25;20821571;28;20053;-69
2023/12/22 10:06:12;;;;;;;3.15;1.45;;;;;;;18.61;50.43;99602.06;20817059;28;20192;-68
2023/12/22 10:16:14;;;;;;;3.00;1.20;;;;;;;18.59;50.98;99614.88;20839904;28;20139;-67
2023/12/22 10:26:17;;;;;;;3.38;1.02;;;;;;;18.93;50.51;99592.16;20830561;28;20053;-68
2023/12/22 10:36:19;;;;;;;2.58;0.90;;;;;;;19.18;50.42;99580.44;20826056;28;20119;-69
2023/12/22 10:46:21;;;;;;;2.28;1.10;;;;;;;19.41;49.47;99557.03;20804207;28;20051;-69
2023/12/22 10:56:23;;;;;;;2.78;0.90;;;;;;;19.52;48.96;99547.69;20816388;28;20065;-69
2023/12/22 11:06:26;;;;;;;1.77;0.80;;;;;;;19.88;48.56;99550.75;20823742;28;20063;-68
2023/12/22 11:16:35;;;;;;;2.58;0.80;;;;;;;20.09;47.92;99561.75;20828727;28;20052;-69
2023/12/22 11:26:38;;;;;;;2.72;1.10;;;;;;;20.26;47.77;99556.16;20815987;28;20142;-69
2023/12/22 11:36:40;;;;;;;3.38;0.90;;;;;;;20.38;47.50;99556.56;20824070;28;20060;-69
2023/12/22 11:46:42;;;;;;;3.13;1.08;;;;;;;20.60;47.70;99565.59;20833141;28;20590;-68
2023/12/22 11:56:44;;;;;;;2.50;1.00;;;;;;;20.95;47.40;99549.66;20837123;28;20047;-69
2023/12/22 12:06:46;;;;;;;3.45;1.50;;;;;;;21.19;47.23;99547.63;20804008;28;20045;-69
2023/12/22 12:16:47;;;;;;;3.47;1.17;;;;;;;21.25;47.00;99530.66;20829993;28;20466;-69
2023/12/22 12:26:50;;;;;;;3.03;1.13;;;;;;;21.32;46.82;99506.34;20795212;28;20049;-69
2023/12/22 12:36:52;;;;;;;5.38;1.65;;;;;;;21.42;46.97;99497.91;20784838;28;20065;-68
2023/12/22 12:46:54;;;;;;;2.00;0.93;;;;;;;21.48;46.86;99494.41;20794727;28;20263;-68
2023/12/22 12:56:56;;;;;;;3.53;1.10;;;;;;;21.54;47.23;99484.69;20829516;28;20041;-70
2023/12/22 13:06:59;;;;;;;4.03;1.25;;;;;;;21.25;48.42;99481.06;20841217;28;20075;-69
2023/12/22 13:17:01;;;;;;;4.53;1.20;;;;;;;20.90;53.37;99495.28;20835670;28;20054;-67
2023/12/22 13:27:06;;;;;;;2.63;0.98;;;;;;;20.71;53.24;99488.59;20823545;28;20641;-70
2023/12/22 13:37:09;;;;;;;3.17;1.15;;;;;;;20.46;53.61;99478.06;20821404;28;20514;-68
2023/12/22 13:47:11;;;;;;;1.63;0.93;;;;;;;20.22;53.45;99492.72;20839478;28;20524;-67
2023/12/22 13:57:21;;;;;;;2.38;1.08;;;;;;;20.13;53.85;99495.50;20827300;28;20041;-68
2023/12/22 14:07:23;;;;;;;1.63;0.70;;;;;;;20.06;53.92;99508.09;20817000;28;20489;-68
2023/12/22 14:17:25;;;;;;;1.92;0.85;;;;;;;20.02;54.38;99490.56;20823521;28;20507;-69
2023/12/22 14:27:29;;;;;;;1.27;0.57;;;;;;;19.98;54.18;99491.97;20802797;28;20049;-68
2023/12/22 14:37:31;;;;;;;2.35;0.88;;;;;;;19.74;56.25;99510.03;20837389;28;20042;-68
2023/12/22 14:47:33;;;;;;;2.08;0.68;;;;;;;19.60;56.48;99490.06;20805694;28;20068;-68
2023/12/22 14:57:35;;;;;;;1.30;0.50;;;;;;;19.68;56.06;99492.72;20808906;28;20128;-68
2023/12/22 15:07:37;;;;;;;1.33;0.50;;;;;;;19.77;55.34;99506.97;20819778;28;20517;-69
2023/12/22 15:17:39;;;;;;;1.75;0.70;;;;;;;19.77;55.21;99498.88;20838364;28;20057;-68
2023/12/22 15:27:41;;;;;;;1.48;0.40;;;;;;;19.74;54.59;99496.53;20824584;28;20413;-68
2023/12/22 15:37:44;;;;;;;1.08;0.40;;;;;;;19.65;54.68;99520.06;20826361;28;20445;-69
2023/12/22 15:47:46;;;;;;;1.90;0.60;;;;;;;19.43;54.74;99516.34;20832399;28;20421;-69
2023/12/22 15:57:48;;;;;;;2.10;1.05;;;;;;;19.18;55.05;99530.03;20799466;28;20548;-68
2023/12/22 16:07:50;;;;;;;2.40;0.57;;;;;;;18.93;55.26;99564.38;20791761;28;20049;-68
2023/12/22 16:17:51;;;;;;;1.17;0.40;;;;;;;18.55;58.36;99573.09;20790711;28;20102;-67
2023/12/22 16:27:53;;;;;;;1.92;0.88;;;;;;;18.56;58.34;99545.16;20818978;28;20123;-66
2023/12/22 16:37:55;;;;;;;11.77;4.20;;;;;;;18.65;63.64;99598.00;20831246;28;20045;-67
2023/12/22 16:47:57;;;;;;;8.45;3.22;;;;;;;18.92;63.24;99606.66;20748735;28;20050;-69
2023/12/22 16:57:59;;;;;;;6.00;2.45;;;;;;;18.98;62.08;99605.97;20749244;28;20045;-69
2023/12/22 17:08:01;;;;;;;6.63;2.38;;;;;;;18.87;61.23;99602.81;20785448;28;20198;-66
2023/12/22 17:18:04;;;;;;;6.30;2.17;;;;;;;18.73;60.45;99639.44;20790758;28;20198;-68
2023/12/22 17:28:06;;;;;;;6.18;2.42;;;;;;;18.62;60.61;99633.41;20778580;28;20057;-67
2023/12/22 17:38:08;;;;;;;6.90;2.15;;;;;;;18.44;60.28;99667.78;20788741;28;20041;-68
2023/12/22 17:48:10;;;;;;;4.28;1.52;;;;;;;18.16;60.81;99692.38;20785121;28;20049;-69
2023/12/22 17:58:12;;;;;;;4.22;1.60;;;;;;;17.95;62.05;99689.13;20787458;28;20206;-72
2023/12/22 18:08:14;;;;;;;4.15;1.60;;;;;;;18.00;61.56;99745.16;20830965;28;20518;-70
2023/12/22 18:18:15;;;;;;;3.40;1.10;;;;;;;18.03;60.83;99761.03;20805366;28;20052;-72
2023/12/22 18:28:17;;;;;;;4.78;1.40;;;;;;;17.92;61.02;99791.78;20829158;28;20055;-71
2023/12/22 18:38:19;;;;;;;4.20;1.30;;;;;;;18.02;60.27;99801.59;20812211;28;20053;-71
2023/12/22 18:48:21;;;;;;;3.35;1.33;;;;;;;17.99;59.90;99813.50;20833126;28;20140;-71
2023/12/22 18:58:23;;;;;;;3.60;1.20;;;;;;;17.94;59.90;99815.84;20854255;28;20124;-70
2023/12/22 19:08:25;;;;;;;2.92;1.17;;;;;;;17.78;59.96;99832.75;20845215;28;20499;-70
2023/12/22 19:18:26;;;;;;;3.22;1.13;;;;;;;17.77;59.83;99840.00;20856166;28;20049;-71
2023/12/22 19:28:29;;;;;;;2.30;0.77;;;;;;;17.74;59.75;99834.97;20841428;28;20420;-70
2023/12/22 19:38:31;;;;;;;3.17;0.93;;;;;;;17.73;59.62;99854.81;20873288;28;20141;-70
2023/12/22 19:48:33;;;;;;;3.47;0.88;;;;;;;17.67;59.64;99882.34;20797897;28;20524;-70
2023/12/22 19:58:34;;;;;;;3.20;1.20;;;;;;;17.71;59.53;99893.66;20869599;28;20661;-71
2023/12/22 20:08:37;;;;;;;3.92;1.17;;;;;;;17.70;59.25;99898.19;20824632;28;20118;-71
2023/12/22 20:18:39;;;;;;;2.72;0.90;;;;;;;17.51;59.28;99928.84;20842268;28;20045;-70
2023/12/22 20:28:41;;;;;;;3.15;1.23;;;;;;;17.29;62.72;99946.34;20868634;28;20046;-70
2023/12/22 20:38:43;;;;;;;3.90;1.40;;;;;;;17.18;63.34;99967.09;20812101;28;20049;-70
2023/12/22 20:48:45;;;;;;;4.28;1.30;;;;;;;17.19;63.41;99979.53;20847828;28;20053;-69
2023/12/22 20:58:47;;;;;;;3.95;1.30;;;;;;;17.18;62.97;100028.94;20822377;28;20465;-69
2023/12/22 21:08:50;;;;;;;3.42;1.30;;;;;;;17.20;62.33;100009.97;20828341;28;20053;-69
2023/12/22 21:18:52;;;;;;;2.22;0.93;;;;;;;17.19;61.65;100052.16;20845274;28;20405;-69
2023/12/22 21:28:54;;;;;;;2.20;0.80;;;;;;;17.22;61.00;100059.09;20827330;28;20410;-70
2023/12/22 21:38:59;;;;;;;2.43;0.87;;;;;;;17.10;60.68;100071.91;20815058;28;20053;-70
2023/12/22 21:49:00;;;;;;;1.60;0.75;;;;;;;16.93;60.75;100106.63;20855801;28;20063;-69
2023/12/22 21:59:03;;;;;;;1.63;0.68;;;;;;;16.90;60.09;100100.69;20854288;28;20106;-70
2023/12/22 22:09:05;;;;;;;0.95;0.52;;;;;;;16.68;59.98;100105.50;20845382;28;20049;-70
2023/12/22 22:19:07;;;;;;;3.17;0.93;;;;;;;16.58;59.77;100145.00;20846771;28;20041;-70
2023/12/22 22:29:11;;;;;;;2.85;0.88;;;;;;;16.53;59.34;100153.47;20852751;28;20049;-70
2023/12/22 22:39:13;;;;;;;1.77;0.70;;;;;;;16.41;59.40;100181.50;20832467;28;20049;-70
2023/12/22 22:49:15;;;;;;;2.30;0.77;;;;;;;16.34;59.33;100184.75;20841632;28;20400;-70
2023/12/22 22:59:17;;;;;;;3.38;1.00;;;;;;;16.31;59.00;100222.63;20847945;28;20076;-69
2023/12/22 23:09:19;;;;;;;4.75;0.82;;;;;;;16.26;58.76;100248.25;20821931;28;20520;-69
2023/12/22 23:19:20;;;;;;;2.47;0.80;;;;;;;16.27;58.31;100207.81;20827936;28;20056;-70
2023/12/22 23:29:22;;;;;;;2.55;0.80;;;;;;;15.90;58.30;100170.91;20846105;28;20417;-69
2023/12/22 23:39:24;;;;;;;3.50;0.63;;;;;;;16.31;57.64;100236.06;20845440;28;20045;-69
2023/12/22 23:49:26;;;;;;;2.83;0.80;;;;;;;16.23;57.72;100260.09;20853527;28;20521;-70
2023/12/22 23:59:28;;;;;;;2.40;0.70;;;;;;;16.23;57.65;100252.06;20857672;28;20049;-70
